Latest Flight | Flight Log | Engine Trends | Login | Join CirrusReports.com!
Date Range From To
Export:
Flight Log - N392SR - Click on row to view flight. Click on header to sort.
Date Origin Dest Depart Arrive Hobbs Flight Time Flight Distance Fuel Fuel/hr Fuel/nm Altitude Gnd Speed
Fri, Oct 5, 2012 M97 M97 18:34 18:34 0 hrs 0.00 hrs 0.00 nm 32.60 gal 19560.00 gal/hr 0.00 gal/nm 0 msl 0 kts
Fri, Oct 5, 2012 M97 M97 18:34 18:34 0 hrs 0.00 hrs 0.00 nm 32.60 gal 19560.00 gal/hr 0.00 gal/nm 0 msl 0 kts
Thu, Oct 4, 2012 KRYY M97 16:31 18:34 2.02 hrs 1.83 hrs 291.46 nm 32.60 gal 16.15 gal/hr 0.11 gal/nm 10186 msl 159 kts
Fri, Sep 28, 2012 6A3 KRYY 19:16 20:00 0.72 hrs 0.56 hrs 84.14 nm 11.80 gal 16.43 gal/hr 0.14 gal/nm 8339 msl 150 kts
Thu, Sep 27, 2012 KRYY 6A3 13:50 14:33 0.72 hrs 0.56 hrs 86.72 nm 10.60 gal 14.76 gal/hr 0.12 gal/nm 7192 msl 154 kts
Wed, Sep 26, 2012 KRYY KRYY 19:57 19:57 0 hrs 0.00 hrs 0.00 nm 52.00 gal 31200.00 gal/hr 0.00 gal/nm 0 msl 0 kts
Wed, Sep 26, 2012 KMQI KRYY 16:51 19:57 3.07 hrs 2.84 hrs 472.62 nm 52.00 gal 16.95 gal/hr 0.11 gal/nm 10264 msl 165 kts
Wed, Sep 26, 2012     16:48 16:49 0.02 hrs 0.00 hrs 0.00 nm 0.10 gal 5.45 gal/hr 0.00 gal/nm 0 msl 0 kts
Sun, Sep 23, 2012 KRYY KMQI 14:17 16:53 2.57 hrs 2.40 hrs 0.00 nm 41.50 gal 16.16 gal/hr 0.00 gal/nm 11339 msl 0 kts
Sat, Sep 22, 2012 KMSL KRYY 19:02 20:15 1.2 hrs 1.03 hrs 182.43 nm 19.50 gal 16.23 gal/hr 0.11 gal/nm 9415 msl 175 kts
Sat, Sep 22, 2012 KRYY KMSL 13:45 15:06 1.34 hrs 1.13 hrs 156.79 nm 20.90 gal 15.66 gal/hr 0.13 gal/nm 8393 msl 139 kts
Mon, Sep 17, 2012 KRYY KRYY 18:02 18:02 0 hrs 0.00 hrs 0.00 nm 20.50 gal 12300.00 gal/hr 0.00 gal/nm 0 msl 0 kts
Mon, Sep 17, 2012 KRYY KRYY 17:09 18:51 1.67 hrs 1.47 hrs 210.89 nm 28.60 gal 17.14 gal/hr 0.14 gal/nm 6007 msl 143 kts
Thu, Sep 13, 2012 KGKT KRYY 16:49 18:02 1.22 hrs 1.11 hrs 174.60 nm 20.50 gal 16.83 gal/hr 0.12 gal/nm 8147 msl 157 kts
Thu, Sep 13, 2012 KRYY KGKT 14:13 15:24 1.17 hrs 0.94 hrs 147.33 nm 15.20 gal 13.01 gal/hr 0.10 gal/nm 7102 msl 156 kts
Sun, Sep 9, 2012 FD13 KRYY 19:01 20:40 1.64 hrs 1.47 hrs 238.81 nm 27.80 gal 17.00 gal/hr 0.12 gal/nm 9504 msl 162 kts
Fri, Sep 7, 2012 KRYY FD13 17:20 19:51 2.5 hrs 1.92 hrs 305.06 nm 38.20 gal 15.27 gal/hr 0.13 gal/nm 14497 msl 158 kts
Fri, Sep 7, 2012 KSFQ KRYY 14:07 16:41 2.55 hrs 2.41 hrs 437.76 nm 43.10 gal 16.89 gal/hr 0.10 gal/nm 9949 msl 181 kts
Fri, Sep 7, 2012 1B9 KSFQ 10:59 13:51 2.84 hrs 2.48 hrs 424.55 nm 44.60 gal 15.73 gal/hr 0.11 gal/nm 10019 msl 170 kts
Thu, Sep 6, 2012 1B9 1B9 16:48 16:52 0.07 hrs 0.00 hrs 0.00 nm 0.20 gal 2.93 gal/hr 0.00 gal/nm 0 msl 0 kts
Thu, Sep 6, 2012 1B9 1B9 16:17 16:35 0.3 hrs 0.23 hrs 31.88 nm 12.80 gal 42.43 gal/hr 0.40 gal/nm 1831 msl 141 kts
Thu, Sep 6, 2012 1B9 1B9 16:15 16:15 0 hrs 0.00 hrs 0.00 nm 8.80 gal 5280.00 gal/hr 0.00 gal/nm 0 msl 0 kts
Thu, Sep 6, 2012 1B9 1B9 15:28 16:15 0.79 hrs 0.43 hrs 65.31 nm 8.80 gal 11.21 gal/hr 0.13 gal/nm 2128 msl 150 kts
Thu, Sep 6, 2012     14:35 14:36 0.02 hrs 0.00 hrs 0.00 nm 0.00 gal 0.00 gal/hr 0.00 gal/nm 0 msl 0 kts
Thu, Sep 6, 2012 4KS2 4KS2 14:16 14:22 0.1 hrs 0.00 hrs 0.00 nm 0.00 gal 0.00 gal/hr 0.00 gal/nm 0 msl 0 kts
Tue, Sep 4, 2012     20:25 20:25 0 hrs 0.00 hrs 0.00 nm 0.00 gal 0.00 gal/hr 0.00 gal/nm 0 msl 0 kts
Tue, Sep 4, 2012     20:25 20:25 0 hrs 0.00 hrs 0.00 nm 0.00 gal 0.00 gal/hr 0.00 gal/nm 0 msl 0 kts
Tue, Sep 4, 2012 1B9 1B9 16:19 16:19 0 hrs 0.00 hrs 0.00 nm 0.00 gal 0.00 gal/hr 0.00 gal/nm 0 msl 0 kts
Tue, Sep 4, 2012 1B9 1B9 16:10 16:19 0.15 hrs 0.00 hrs 0.00 nm 0.00 gal 0.00 gal/hr 0.00 gal/nm 0 msl 0 kts
Tue, Sep 4, 2012     15:33 15:34 0.04 hrs 0.00 hrs 0.00 nm 0.00 gal 0.00 gal/hr 0.00 gal/nm 0 msl 0 kts
Tue, Sep 4, 2012     15:03 15:04 0.04 hrs 0.00 hrs 0.00 nm 0.00 gal 0.00 gal/hr 0.00 gal/nm 0 msl 0 kts
Tue, Sep 4, 2012     14:21 14:21 0 hrs 0.00 hrs 0.00 nm 0.00 gal 0.00 gal/hr 0.00 gal/nm 0 msl 0 kts
Tue, Sep 4, 2012     14:21 14:21 0 hrs 0.00 hrs 0.00 nm 0.00 gal 0.00 gal/hr 0.00 gal/nm 0 msl 0 kts
Tue, Sep 4, 2012     14:20 14:21 0.02 hrs 0.00 hrs 0.00 nm 0.00 gal 0.00 gal/hr 0.00 gal/nm 0 msl 0 kts
Sat, Sep 1, 2012 4KS2 4KS2 14:43 14:43 0 hrs 0.00 hrs 0.00 nm 0.00 gal 0.00 gal/hr 0.00 gal/nm 0 msl 0 kts
Fri, Aug 31, 2012     20:24 20:25 0.02 hrs 0.00 hrs 0.00 nm 0.00 gal 0.00 gal/hr 0.00 gal/nm 0 msl 0 kts
Fri, Aug 31, 2012     20:20 20:22 0.04 hrs 0.00 hrs 0.00 nm 0.00 gal 0.00 gal/hr 0.00 gal/nm 0 msl 0 kts
Fri, Aug 31, 2012     18:21 18:29 0.14 hrs 0.00 hrs 0.00 nm 0.00 gal 0.00 gal/hr 0.00 gal/nm 0 msl 0 kts
Fri, Aug 31, 2012 4KS2 4KS2 15:45 15:48 0.05 hrs 0.00 hrs 0.00 nm 0.00 gal 0.00 gal/hr 0.00 gal/nm 0 msl 0 kts
Fri, Aug 31, 2012     15:39 15:40 0.02 hrs 0.00 hrs 0.00 nm 0.00 gal 0.00 gal/hr 0.00 gal/nm 0 msl 0 kts
Fri, Aug 31, 2012 4KS2 4KS2 15:30 15:38 0.14 hrs 0.00 hrs 0.00 nm 0.00 gal 0.00 gal/hr 0.00 gal/nm 0 msl 0 kts
Fri, Aug 31, 2012 4KS2 4KS2 15:06 15:16 0.17 hrs 0.00 hrs 0.00 nm 0.00 gal 0.00 gal/hr 0.00 gal/nm 0 msl 0 kts
Fri, Aug 31, 2012 4KS2 4KS2 14:41 14:43 0.05 hrs 0.00 hrs 0.00 nm 0.00 gal 0.00 gal/hr 0.00 gal/nm 0 msl 0 kts
Fri, Aug 31, 2012     13:20 13:22 0.04 hrs 0.00 hrs 0.00 nm 0.00 gal 0.00 gal/hr 0.00 gal/nm 0 msl 0 kts
Fri, Aug 31, 2012     13:09 13:13 0.07 hrs 0.00 hrs 0.00 nm 0.00 gal 0.00 gal/hr 0.00 gal/nm 0 msl 0 kts
Fri, Aug 31, 2012     13:01 13:04 0.05 hrs 0.00 hrs 0.00 nm 0.00 gal 0.00 gal/hr 0.00 gal/nm 0 msl 0 kts
Fri, Aug 31, 2012     12:52 12:52 0 hrs 0.00 hrs 0.00 nm 0.00 gal 0.00 gal/hr 0.00 gal/nm 0 msl 0 kts
Fri, Aug 31, 2012     12:51 12:52 0.02 hrs 0.00 hrs 0.00 nm 0.00 gal 0.00 gal/hr 0.00 gal/nm 0 msl 0 kts
Thu, Aug 30, 2012 KLWM 1B9 15:43 16:18 0.57 hrs 0.45 hrs 0.00 nm 7.60 gal 13.37 gal/hr 0.00 gal/nm 3108 msl 0 kts
Thu, Aug 30, 2012 1B9 KLWM 14:26 15:12 0.77 hrs 0.61 hrs 0.00 nm 11.90 gal 15.49 gal/hr 0.00 gal/nm 12004 msl 0 kts
Thu, Aug 30, 2012 1B9 1B9 14:16 14:24 0.14 hrs 0.00 hrs 0.00 nm 0.40 gal 2.96 gal/hr 0.00 gal/nm 0 msl 0 kts
Thu, Aug 30, 2012 1B9 1B9 14:04 14:06 0.04 hrs 0.00 hrs 0.00 nm 0.10 gal 2.86 gal/hr 0.00 gal/nm 0 msl 0 kts
Wed, Aug 29, 2012 1B9 1B9 12:31 13:17 0.77 hrs 0.02 hrs 11.19 nm 0.00 gal 0.00 gal/hr 0.00 gal/nm 94 msl 671 kts
Wed, Aug 29, 2012     12:08 12:09 0.02 hrs 0.00 hrs 0.00 nm 0.00 gal 0.00 gal/hr 0.00 gal/nm 0 msl 0 kts
Tue, Aug 28, 2012     20:15 20:15 0 hrs 0.00 hrs 0.00 nm 0.00 gal 0.00 gal/hr 0.00 gal/nm 0 msl 0 kts
Tue, Aug 28, 2012     20:14 20:15 0.02 hrs 0.00 hrs 0.00 nm 0.00 gal 0.00 gal/hr 0.00 gal/nm 0 msl 0 kts
Tue, Aug 28, 2012 1B9 1B9 19:43 19:46 0.05 hrs 0.00 hrs 0.00 nm 0.30 gal 5.81 gal/hr 0.00 gal/nm 0 msl 0 kts
Tue, Aug 28, 2012     13:48 13:49 0.02 hrs 0.00 hrs 0.00 nm 0.00 gal 0.00 gal/hr 0.00 gal/nm 0 msl 0 kts
Fri, Aug 17, 2012     19:08 19:19 0.19 hrs 0.00 hrs 0.00 nm 0.00 gal 0.00 gal/hr 0.00 gal/nm 0 msl 0 kts
Fri, Aug 17, 2012     18:26 18:34 0.14 hrs 0.00 hrs 0.00 nm 0.00 gal 0.00 gal/hr 0.00 gal/nm 0 msl 0 kts
Fri, Aug 17, 2012 4KS2 4KS2 18:18 18:25 0.12 hrs 0.00 hrs 0.00 nm 0.00 gal 0.00 gal/hr 0.00 gal/nm 0 msl 0 kts
Fri, Aug 17, 2012     18:11 18:16 0.1 hrs 0.00 hrs 0.00 nm 0.00 gal 0.00 gal/hr 0.00 gal/nm 0 msl 0 kts
Fri, Aug 17, 2012 1B9 1B9 15:34 16:10 0.6 hrs 0.17 hrs 0.00 nm 0.00 gal 0.00 gal/hr 0.00 gal/nm 19841 msl 0 kts
Fri, Aug 17, 2012 1B9 1B9 12:44 13:27 0.7 hrs 0.13 hrs 0.00 nm 0.00 gal 0.00 gal/hr 0.00 gal/nm 1999 msl 0 kts
Fri, Aug 17, 2012     12:26 12:27 0.02 hrs 0.00 hrs 0.00 nm 0.00 gal 0.00 gal/hr 0.00 gal/nm 0 msl 0 kts
Fri, Aug 17, 2012     12:18 12:24 0.1 hrs 0.00 hrs 0.00 nm 0.00 gal 0.00 gal/hr 0.00 gal/nm 0 msl 0 kts
Thu, Aug 16, 2012     19:31 19:31 0 hrs 0.00 hrs 0.00 nm 0.00 gal 0.00 gal/hr 0.00 gal/nm 0 msl 0 kts
Thu, Aug 16, 2012     19:29 19:31 0.04 hrs 0.00 hrs 0.00 nm 0.00 gal 0.00 gal/hr 0.00 gal/nm 0 msl 0 kts
Thu, Aug 16, 2012     19:26 19:27 0.02 hrs 0.00 hrs 0.00 nm 0.00 gal 0.00 gal/hr 0.00 gal/nm 0 msl 0 kts
Thu, Aug 16, 2012     19:20 19:25 0.09 hrs 0.00 hrs 0.00 nm 0.00 gal 0.00 gal/hr 0.00 gal/nm 0 msl 0 kts
Thu, Aug 16, 2012     19:16 19:19 0.05 hrs 0.00 hrs 0.00 nm 0.00 gal 0.00 gal/hr 0.00 gal/nm 0 msl 0 kts
Thu, Aug 16, 2012 1B9 4KS2 13:53 14:12 0.3 hrs 0.01 hrs 0.42 nm 0.00 gal 0.00 gal/hr 0.00 gal/nm 209 msl 51 kts
Thu, Aug 9, 2012     14:14 14:17 0.05 hrs 0.00 hrs 0.00 nm 0.20 gal 3.87 gal/hr 0.00 gal/nm 0 msl 0 kts
Wed, Aug 8, 2012 1B9 1B9 20:31 20:31 0 hrs 0.00 hrs 0.00 nm 72.60 gal 43560.00 gal/hr 0.00 gal/nm 0 msl 0 kts
Wed, Aug 8, 2012 1B9 1B9 16:08 16:26 0.3 hrs 0.00 hrs 0.00 nm 1.70 gal 5.64 gal/hr 0.00 gal/nm 0 msl 0 kts
Tue, Aug 7, 2012 KRYY 1B9 15:52 20:31 4.59 hrs 4.39 hrs 833.02 nm 72.60 gal 15.83 gal/hr 0.09 gal/nm 16954 msl 188 kts
Sun, Jul 8, 2012 KDLH KRYY 13:01 17:53 4.82 hrs 4.63 hrs 859.49 nm 73.90 gal 15.34 gal/hr 0.09 gal/nm 15320 msl 184 kts
Thu, Jul 5, 2012 KDLH KDLH 18:17 18:17 0 hrs 0.00 hrs 0.00 nm 57.50 gal 34500.00 gal/hr 0.00 gal/nm 0 msl 0 kts
Tue, Jul 3, 2012 KDLH KDLH 18:17 18:17 0 hrs 0.00 hrs 0.00 nm 57.50 gal 34500.00 gal/hr 0.00 gal/nm 0 msl 0 kts
Tue, Jul 3, 2012 KCPS KDLH 14:57 18:17 3.32 hrs 3.08 hrs 507.91 nm 57.50 gal 17.33 gal/hr 0.11 gal/nm 10668 msl 164 kts
Tue, Jul 3, 2012 KCPS KCPS 14:53 14:53 0 hrs 0.00 hrs 0.00 nm 0.20 gal 120.00 gal/hr 0.00 gal/nm 0 msl 0 kts
Tue, Jul 3, 2012 KCPS KCPS 14:50 14:53 0.05 hrs 0.00 hrs 0.00 nm 0.20 gal 3.87 gal/hr 0.00 gal/nm 0 msl 0 kts
Sat, Jun 30, 2012 KRYY KCPS 14:04 16:46 2.67 hrs 2.39 hrs 388.56 nm 46.70 gal 17.50 gal/hr 0.12 gal/nm 10570 msl 162 kts
Mon, Jun 25, 2012 KRYY KRYY 14:48 16:24 1.57 hrs 1.32 hrs 179.06 nm 20.00 gal 12.75 gal/hr 0.11 gal/nm 3953 msl 135 kts
Wed, May 23, 2012 KRYY KRYY 14:40 15:06 0.44 hrs 0.22 hrs 27.74 nm 4.40 gal 10.11 gal/hr 0.16 gal/nm 4485 msl 127 kts
Sun, May 20, 2012 KCRG KCRG 16:47 16:47 0 hrs 0.00 hrs 0.00 nm 30.40 gal 18240.00 gal/hr 0.00 gal/nm 0 msl 0 kts
Sun, May 20, 2012 KCRG KRYY 14:12 16:13 2 hrs 1.82 hrs 287.24 nm 31.30 gal 15.64 gal/hr 0.11 gal/nm 10386 msl 157 kts
Thu, May 17, 2012 KRYY KCRG 14:48 16:47 1.95 hrs 1.79 hrs 302.18 nm 30.40 gal 15.58 gal/hr 0.10 gal/nm 9424 msl 168 kts
Thu, May 3, 2012 KHXD KRYY 19:34 21:04 1.49 hrs 1.36 hrs 235.66 nm 25.50 gal 17.17 gal/hr 0.11 gal/nm 8405 msl 172 kts
Thu, May 3, 2012 KRYY KHXD 14:12 15:49 1.6 hrs 1.48 hrs 232.98 nm 26.80 gal 16.73 gal/hr 0.12 gal/nm 7280 msl 157 kts
Fri, Apr 27, 2012 KAVL KRYY 13:15 14:41 1.42 hrs 1.19 hrs 174.47 nm 20.10 gal 14.17 gal/hr 0.12 gal/nm 8384 msl 145 kts
Tue, Apr 24, 2012 KSRQ KSRQ 16:16 16:16 0 hrs 0.00 hrs 0.00 nm 46.20 gal 27720.00 gal/hr 0.00 gal/nm 0 msl 0 kts
Tue, Apr 24, 2012 KRYY KAVL 16:07 17:18 1.17 hrs 0.97 hrs 147.39 nm 15.80 gal 13.52 gal/hr 0.11 gal/nm 7500 msl 152 kts
Tue, Apr 24, 2012 KSRQ KRYY 10:40 13:51 3.15 hrs 2.97 hrs 416.88 nm 50.30 gal 15.96 gal/hr 0.12 gal/nm 10440 msl 140 kts
Thu, Apr 19, 2012 KRYY KSRQ 13:14 16:16 2.99 hrs 2.80 hrs 459.86 nm 46.20 gal 15.48 gal/hr 0.10 gal/nm 10961 msl 163 kts
Mon, Apr 9, 2012     13:27 13:28 0.04 hrs 0.00 hrs 0.00 nm 0.20 gal 5.71 gal/hr 0.00 gal/nm 0 msl 0 kts
Fri, Apr 6, 2012     12:08 12:15 0.12 hrs 0.00 hrs 0.00 nm 0.50 gal 4.23 gal/hr 0.00 gal/nm 0 msl 0 kts
Thu, Apr 5, 2012 KOPF KRYY 14:01 17:32 3.49 hrs 3.35 hrs 542.35 nm 58.00 gal 16.64 gal/hr 0.11 gal/nm 10595 msl 161 kts
Tue, Apr 3, 2012 KGNV KOPF 18:00 19:49 1.8 hrs 1.61 hrs 266.81 nm 29.10 gal 16.15 gal/hr 0.11 gal/nm 9496 msl 165 kts
Tue, Apr 3, 2012 KRYY KGNV 12:30 14:31 2 hrs 1.80 hrs 310.05 nm 31.60 gal 15.79 gal/hr 0.10 gal/nm 11016 msl 171 kts
Sat, Mar 31, 2012 X16 KRYY 19:59 22:39 2.64 hrs 2.48 hrs 411.99 nm 42.60 gal 16.17 gal/hr 0.10 gal/nm 10453 msl 165 kts
Thu, Mar 29, 2012 KRYY KRYY 22:10 22:10 0 hrs 0.00 hrs 0.00 nm 17.90 gal 10740.00 gal/hr 0.00 gal/nm 0 msl 0 kts
Thu, Mar 29, 2012 KRYY X16 18:07 20:40 2.52 hrs 2.30 hrs 399.54 nm 38.40 gal 15.25 gal/hr 0.10 gal/nm 10938 msl 173 kts
Sat, Mar 17, 2012 KMSL KRYY 21:03 22:10 1.1 hrs 0.98 hrs 162.01 nm 17.90 gal 16.25 gal/hr 0.11 gal/nm 9340 msl 165 kts
Sat, Mar 17, 2012 KRYY KMSL 13:40 14:55 1.24 hrs 1.04 hrs 158.41 nm 17.60 gal 14.25 gal/hr 0.11 gal/nm 8221 msl 151 kts
Wed, Mar 7, 2012 KDTS KRYY 18:24 20:03 1.64 hrs 1.38 hrs 250.77 nm 23.70 gal 14.50 gal/hr 0.09 gal/nm 9100 msl 180 kts
Mon, Mar 5, 2012 KRYY KDTS 18:16 19:48 1.52 hrs 1.35 hrs 242.87 nm 22.70 gal 14.95 gal/hr 0.09 gal/nm 8173 msl 179 kts
Tue, Feb 28, 2012 KISM KRYY 16:06 18:50 2.7 hrs 2.47 hrs 408.41 nm 42.90 gal 15.88 gal/hr 0.11 gal/nm 9656 msl 165 kts
Sun, Feb 26, 2012 KLAL KISM 20:25 21:02 0.6 hrs 0.30 hrs 37.67 nm 6.10 gal 10.14 gal/hr 0.16 gal/nm 1703 msl 125 kts
Sun, Feb 26, 2012 KLAL KLAL 18:03 19:45 1.69 hrs 1.43 hrs 188.35 nm 23.50 gal 13.95 gal/hr 0.12 gal/nm 2326 msl 131 kts
Sat, Feb 25, 2012 KLAL KLAL 20:58 22:53 1.9 hrs 1.19 hrs 141.45 nm 21.00 gal 11.04 gal/hr 0.15 gal/nm 5305 msl 118 kts
Sat, Feb 25, 2012 KRYY KLAL 11:54 14:24 2.47 hrs 2.24 hrs 408.37 nm 37.80 gal 15.31 gal/hr 0.09 gal/nm 8728 msl 181 kts
Wed, Feb 15, 2012 KTCL KRYY 19:12 20:19 1.1 hrs 0.92 hrs 164.04 nm 16.60 gal 15.07 gal/hr 0.10 gal/nm 9300 msl 178 kts
Wed, Feb 15, 2012 KTCL KTCL 18:55 18:57 0.04 hrs 0.00 hrs 0.00 nm 0.00 gal 0.00 gal/hr 0.00 gal/nm 0 msl 0 kts
Wed, Feb 15, 2012     18:50 18:51 0.02 hrs 0.00 hrs 0.00 nm 0.00 gal 0.00 gal/hr 0.00 gal/nm 0 msl 0 kts
Tue, Feb 14, 2012 KRYY KTCL 19:50 21:19 1.47 hrs 1.25 hrs 179.33 nm 22.40 gal 15.26 gal/hr 0.12 gal/nm 7941 msl 143 kts
Thu, Feb 9, 2012 KSRQ KRYY 18:15 21:06 2.82 hrs 2.63 hrs 449.95 nm 45.40 gal 16.11 gal/hr 0.10 gal/nm 10335 msl 170 kts
Wed, Feb 8, 2012 KAPF KSRQ 18:30 19:24 0.9 hrs 0.62 hrs 88.18 nm 12.30 gal 13.64 gal/hr 0.14 gal/nm 4378 msl 142 kts
Wed, Feb 8, 2012 KSRQ KAPF 16:24 17:29 1.07 hrs 0.76 hrs 108.05 nm 12.70 gal 11.89 gal/hr 0.12 gal/nm 1432 msl 142 kts
Fri, Dec 2, 2011 KPWK KATL 18:36 21:50 3.19 hrs 2.99 hrs 564.69 nm 58.20 gal 18.27 gal/hr 0.10 gal/nm 11070 msl 188 kts
Fri, Dec 2, 2011 KPWK KPWK 16:52 16:52 0 hrs 0.00 hrs 0.00 nm 31.60 gal 18960.00 gal/hr 0.00 gal/nm 0 msl 0 kts
Fri, Dec 2, 2011 KPWK KPWK 16:52 16:52 0 hrs 0.00 hrs 0.00 nm 31.60 gal 18960.00 gal/hr 0.00 gal/nm 0 msl 0 kts
Mon, Nov 28, 2011 KFCM KPWK 14:28 16:52 2.39 hrs 2.00 hrs 311.96 nm 31.60 gal 13.25 gal/hr 0.10 gal/nm 8805 msl 155 kts
Wed, Nov 23, 2011 KPWK KFCM 19:48 22:32 2.72 hrs 2.24 hrs 312.75 nm 34.10 gal 12.54 gal/hr 0.11 gal/nm 5801 msl 139 kts
Sat, Nov 19, 2011 KPWK KPWK 16:16 16:25 0.12 hrs 0.00 hrs 0.00 nm 0.00 gal 0.00 gal/hr 0.00 gal/nm 0 msl 0 kts
Fri, Nov 18, 2011     22:57 22:57 0 hrs 0.00 hrs 0.00 nm 0.00 gal 0.00 gal/hr 0.00 gal/nm 0 msl 0 kts
Thu, Nov 17, 2011     22:55 22:57 0.04 hrs 0.00 hrs 0.00 nm 0.00 gal 0.00 gal/hr 0.00 gal/nm 0 msl 0 kts
Sat, Nov 12, 2011     04:12 04:12 0 hrs 0.00 hrs 0.00 nm 0.00 gal 0.00 gal/hr 0.00 gal/nm 0 msl 0 kts
Sat, Oct 29, 2011     04:12 04:12 0 hrs 0.00 hrs 0.00 nm 0.00 gal 0.00 gal/hr 0.00 gal/nm 0 msl 0 kts
Fri, Oct 21, 2011 KPWK KPWK 17:51 17:51 0 hrs 0.00 hrs 0.00 nm 22.00 gal 13200.00 gal/hr 0.00 gal/nm 0 msl 0 kts
Fri, Oct 21, 2011     04:11 04:12 0.02 hrs 0.00 hrs 0.00 nm 0.00 gal 0.00 gal/hr 0.00 gal/nm 0 msl 0 kts
Sun, Oct 16, 2011 KPWK KPWK 15:44 17:51 2.09 hrs 1.38 hrs 167.84 nm 22.00 gal 10.55 gal/hr 0.13 gal/nm 3631 msl 121 kts
Sat, Oct 15, 2011     00:39 00:39 0 hrs 0.00 hrs 0.00 nm 0.00 gal 0.00 gal/hr 0.00 gal/nm 0 msl 0 kts
Tue, Oct 11, 2011     00:39 00:39 0 hrs 0.00 hrs 0.00 nm 0.00 gal 0.00 gal/hr 0.00 gal/nm 0 msl 0 kts
Sat, Oct 1, 2011     00:39 00:39 0 hrs 0.00 hrs 0.00 nm 0.00 gal 0.00 gal/hr 0.00 gal/nm 0 msl 0 kts
Thu, Sep 22, 2011     22:46 22:46 0 hrs 0.00 hrs 0.00 nm 0.00 gal 0.00 gal/hr 0.00 gal/nm 0 msl 0 kts
Thu, Sep 22, 2011     00:38 00:39 0.02 hrs 0.00 hrs 0.00 nm 0.00 gal 0.00 gal/hr 0.00 gal/nm 0 msl 0 kts
Wed, Sep 14, 2011     22:45 22:46 0.02 hrs 0.00 hrs 0.00 nm 0.00 gal 0.00 gal/hr 0.00 gal/nm 0 msl 0 kts
Mon, Sep 5, 2011 KPWK KPWK 22:21 22:27 0.1 hrs 0.00 hrs 0.00 nm 0.40 gal 3.93 gal/hr 0.00 gal/nm 0 msl 0 kts
Mon, Sep 5, 2011 CYKZ KPWK 18:54 21:55 3 hrs 2.53 hrs 0.00 nm 42.40 gal 14.13 gal/hr 0.00 gal/nm 9139 msl 0 kts
Sat, Sep 3, 2011 KPWK CYKZ 17:05 20:21 3.24 hrs 2.71 hrs 478.92 nm 46.30 gal 14.31 gal/hr 0.10 gal/nm 13035 msl 176 kts
Thu, Sep 1, 2011     23:41 23:41 0 hrs 0.00 hrs 0.00 nm 0.00 gal 0.00 gal/hr 0.00 gal/nm 0 msl 0 kts
Thu, Sep 1, 2011     23:41 23:41 0 hrs 0.00 hrs 0.00 nm 0.00 gal 0.00 gal/hr 0.00 gal/nm 0 msl 0 kts
Thu, Aug 25, 2011     23:40 23:41 0.02 hrs 0.00 hrs 0.00 nm 0.00 gal 0.00 gal/hr 0.00 gal/nm 0 msl 0 kts
Sat, Aug 20, 2011     14:30 14:32 0.04 hrs 0.00 hrs 0.00 nm 0.00 gal 0.00 gal/hr 0.00 gal/nm 0 msl 0 kts
Sun, Aug 14, 2011 KPWK KPWK 02:52 03:00 0.14 hrs 0.00 hrs 0.00 nm 0.30 gal 2.22 gal/hr 0.00 gal/nm 0 msl 0 kts
Sun, Aug 14, 2011 KCID KPWK 00:56 02:35 1.65 hrs 1.33 hrs 182.64 nm 21.30 gal 12.90 gal/hr 0.12 gal/nm 7021 msl 136 kts
Sat, Aug 13, 2011 KCOS KCID 18:37 22:49 4.15 hrs 3.71 hrs 0.00 nm 62.90 gal 15.15 gal/hr 0.00 gal/nm 16949 msl 0 kts
Thu, Aug 11, 2011 KGRI KCOS 21:42 00:43 3 hrs 2.56 hrs 365.35 nm 43.60 gal 14.53 gal/hr 0.12 gal/nm 10065 msl 142 kts
Thu, Aug 11, 2011 KGRI KGRI 21:00 21:00 0 hrs 0.00 hrs 0.00 nm 51.50 gal 30900.00 gal/hr 0.00 gal/nm 0 msl 0 kts
Thu, Aug 11, 2011 KPWK KGRI 17:22 21:00 3.6 hrs 3.33 hrs 0.00 nm 51.50 gal 14.30 gal/hr 0.00 gal/nm 11961 msl 0 kts
Thu, Aug 11, 2011 KHPN KHPN 14:42 14:42 0 hrs 0.00 hrs 0.00 nm 4.80 gal 2880.00 gal/hr 0.00 gal/nm 0 msl 0 kts
Thu, Aug 11, 2011 KHPN KHPN 14:42 14:42 0 hrs 0.00 hrs 0.00 nm 4.80 gal 2880.00 gal/hr 0.00 gal/nm 0 msl 0 kts
Wed, Aug 10, 2011 KHPN KPWK 19:35 01:01 5.39 hrs 4.93 hrs 683.77 nm 70.00 gal 13.00 gal/hr 0.10 gal/nm 10280 msl 138 kts
Wed, Aug 10, 2011 KDXR KHPN 14:19 14:42 0.39 hrs 0.20 hrs 25.64 nm 4.80 gal 12.47 gal/hr 0.19 gal/nm 2687 msl 128 kts
Tue, Aug 9, 2011     16:59 17:06 0.12 hrs 0.00 hrs 0.00 nm 1.40 gal 11.83 gal/hr 0.00 gal/nm 0 msl 0 kts
Tue, Aug 9, 2011     15:14 15:18 0.07 hrs 0.00 hrs 0.00 nm 0.00 gal 0.00 gal/hr 0.00 gal/nm 0 msl 0 kts
Mon, Aug 8, 2011 KDXR KDXR 19:12 19:26 0.24 hrs 0.00 hrs 0.00 nm 2.60 gal 11.06 gal/hr 0.00 gal/nm 0 msl 0 kts
Mon, Aug 8, 2011     19:06 19:08 0.04 hrs 0.00 hrs 0.00 nm 0.50 gal 14.29 gal/hr 0.00 gal/nm 0 msl 0 kts
Mon, Aug 8, 2011 KDXR KDXR 18:59 19:01 0.04 hrs 0.00 hrs 0.00 nm 0.30 gal 8.57 gal/hr 0.00 gal/nm 0 msl 0 kts
Mon, Aug 8, 2011 KDXR KDXR 18:46 18:49 0.07 hrs 0.00 hrs 0.00 nm 0.30 gal 4.39 gal/hr 0.00 gal/nm 0 msl 0 kts
Mon, Aug 8, 2011     18:25 18:29 0.07 hrs 0.00 hrs 0.00 nm 0.60 gal 8.78 gal/hr 0.00 gal/nm 0 msl 0 kts
Mon, Aug 8, 2011     18:01 18:13 0.2 hrs 0.00 hrs 0.00 nm 1.60 gal 7.93 gal/hr 0.00 gal/nm 0 msl 0 kts
Mon, Aug 8, 2011 KDXR KDXR 17:38 17:45 0.12 hrs 0.00 hrs 0.00 nm 1.10 gal 9.30 gal/hr 0.00 gal/nm 0 msl 0 kts
Mon, Aug 8, 2011 KDXR KDXR 16:28 16:37 0.15 hrs 0.00 hrs 0.00 nm 1.10 gal 7.25 gal/hr 0.00 gal/nm 0 msl 0 kts
Mon, Aug 8, 2011     16:17 16:19 0.04 hrs 0.00 hrs 0.00 nm 0.10 gal 2.86 gal/hr 0.00 gal/nm 0 msl 0 kts
Wed, Aug 3, 2011 KDXR KDXR 12:14 12:24 0.17 hrs 0.00 hrs 0.00 nm 1.40 gal 8.32 gal/hr 0.00 gal/nm 0 msl 0 kts
Tue, Aug 2, 2011 KHPN KDXR 16:51 17:16 0.42 hrs 0.18 hrs 24.63 nm 5.60 gal 13.39 gal/hr 0.23 gal/nm 2673 msl 134 kts
Mon, Aug 1, 2011 KJST KHPN 00:05 02:13 2.12 hrs 1.78 hrs 277.76 nm 31.10 gal 14.68 gal/hr 0.11 gal/nm 8933 msl 156 kts
Sun, Jul 31, 2011 KPWK KJST 20:00 23:39 3.62 hrs 3.25 hrs 532.46 nm 58.20 gal 16.08 gal/hr 0.11 gal/nm 10877 msl 163 kts
Sat, Jul 30, 2011 KETB KPWK 21:15 22:12 0.94 hrs 0.64 hrs 86.22 nm 12.30 gal 13.16 gal/hr 0.14 gal/nm 3896 msl 134 kts
Sat, Jul 30, 2011 KPWK KETB 14:08 15:20 1.19 hrs 0.71 hrs 100.85 nm 13.70 gal 11.56 gal/hr 0.14 gal/nm 5817 msl 142 kts
Wed, Jul 27, 2011     02:45 02:45 0 hrs 0.00 hrs 0.00 nm 0.00 gal 0.00 gal/hr 0.00 gal/nm 0 msl 0 kts
Wed, Jul 20, 2011     02:44 02:45 0.02 hrs 0.00 hrs 0.00 nm 0.00 gal 0.00 gal/hr 0.00 gal/nm 0 msl 0 kts
Sun, Jul 17, 2011 KFCM KPWK 20:16 22:21 2.07 hrs 1.78 hrs 301.94 nm 33.60 gal 16.24 gal/hr 0.11 gal/nm 10912 msl 168 kts
Sat, Jul 16, 2011 KPWK KFCM 12:57 15:38 2.65 hrs 2.28 hrs 323.30 nm 34.80 gal 13.12 gal/hr 0.11 gal/nm 7956 msl 141 kts
Wed, Jul 13, 2011     19:15 19:18 0.05 hrs 0.00 hrs 0.00 nm 0.00 gal 0.00 gal/hr 0.00 gal/nm 0 msl 0 kts
Tue, Jul 12, 2011 KPWK KPWK 23:15 23:45 0.49 hrs 0.18 hrs 22.52 nm 4.40 gal 9.07 gal/hr 0.20 gal/nm 2229 msl 128 kts
Wed, Jul 6, 2011     23:53 23:54 0.02 hrs 0.00 hrs 0.00 nm 0.00 gal 0.00 gal/hr 0.00 gal/nm 0 msl 0 kts
Sun, Jul 3, 2011 KCPS KPWK 19:24 21:35 2.17 hrs 1.73 hrs 262.68 nm 31.50 gal 14.53 gal/hr 0.12 gal/nm 9002 msl 151 kts
Fri, Jul 1, 2011 KPWK KPWK 20:31 20:31 0 hrs 0.00 hrs 0.00 nm 4.30 gal 2580.00 gal/hr 0.00 gal/nm 0 msl 0 kts
Fri, Jul 1, 2011 KPWK KPWK 20:31 20:31 0 hrs 0.00 hrs 0.00 nm 4.30 gal 2580.00 gal/hr 0.00 gal/nm 0 msl 0 kts
Fri, Jul 1, 2011 KPWK KPWK 20:31 20:31 0 hrs 0.00 hrs 0.00 nm 4.30 gal 2580.00 gal/hr 0.00 gal/nm 0 msl 0 kts
Fri, Jul 1, 2011 KPWK KCPS 16:18 18:45 2.42 hrs 1.89 hrs 274.33 nm 30.00 gal 12.41 gal/hr 0.11 gal/nm 9926 msl 144 kts
Thu, Jun 30, 2011 KDPA KPWK 20:07 20:31 0.4 hrs 0.18 hrs 26.38 nm 4.30 gal 10.71 gal/hr 0.16 gal/nm 0 msl 144 kts
Thu, Jun 30, 2011 KDPA KDPA 18:33 18:49 0.25 hrs 0.06 hrs 6.19 nm 2.10 gal 8.34 gal/hr 0.34 gal/nm 1814 msl 106 kts
Wed, Jun 29, 2011 KDPA KDPA 22:19 22:37 0.3 hrs 0.07 hrs 6.56 nm 2.20 gal 7.29 gal/hr 0.34 gal/nm 1564 msl 97 kts
Wed, Jun 29, 2011 KDPA KDPA 20:16 20:32 0.27 hrs 0.14 hrs 18.16 nm 3.50 gal 13.04 gal/hr 0.19 gal/nm 2585 msl 128 kts
Wed, Jun 29, 2011 KDPA KDPA 16:20 16:20 0 hrs 0.00 hrs 0.00 nm 7.30 gal 4380.00 gal/hr 0.00 gal/nm 0 msl 0 kts
Wed, Jun 29, 2011 KDPA KDPA 15:50 16:20 0.5 hrs 0.35 hrs 50.50 nm 7.30 gal 14.55 gal/hr 0.14 gal/nm 5910 msl 144 kts
Wed, Jun 29, 2011 KARR KDPA 00:13 00:28 0.25 hrs 0.13 hrs 16.49 nm 3.10 gal 12.32 gal/hr 0.19 gal/nm 2228 msl 131 kts
Tue, Jun 28, 2011 KPWK KARR 21:26 22:09 0.7 hrs 0.46 hrs 64.60 nm 9.70 gal 13.82 gal/hr 0.15 gal/nm 7796 msl 140 kts
Sun, Jun 26, 2011 KFCM KPWK 22:24 00:52 2.45 hrs 2.14 hrs 303.08 nm 38.20 gal 15.58 gal/hr 0.13 gal/nm 7098 msl 141 kts
Sun, Jun 26, 2011 KCWA KFCM 19:24 21:11 1.75 hrs 1.45 hrs 198.78 nm 27.20 gal 15.53 gal/hr 0.14 gal/nm 8031 msl 136 kts
Sun, Jun 26, 2011 KFCM KCWA 16:21 17:59 1.62 hrs 1.31 hrs 191.70 nm 23.10 gal 14.27 gal/hr 0.12 gal/nm 7106 msl 146 kts
Fri, Jun 24, 2011 KPWK KFCM 23:15 01:59 2.7 hrs 2.35 hrs 332.57 nm 43.10 gal 15.95 gal/hr 0.13 gal/nm 9121 msl 141 kts
Fri, Jun 24, 2011 KDPA KPWK 21:51 22:14 0.39 hrs 0.19 hrs 27.32 nm 5.10 gal 13.25 gal/hr 0.19 gal/nm 2022 msl 142 kts
Fri, Jun 24, 2011 KDPA KDPA 20:48 20:59 0.19 hrs 0.07 hrs 6.51 nm 1.70 gal 9.19 gal/hr 0.26 gal/nm 1892 msl 98 kts
Fri, Jun 24, 2011 KDPA KDPA 18:12 18:12 0 hrs 0.00 hrs 0.00 nm 6.30 gal 3780.00 gal/hr 0.00 gal/nm 0 msl 0 kts
Fri, Jun 24, 2011 KPWK KDPA 17:47 18:12 0.42 hrs 0.26 hrs 35.90 nm 6.30 gal 15.06 gal/hr 0.18 gal/nm 2481 msl 138 kts
Sun, Jun 19, 2011 KANE KPWK 00:10 03:13 3.02 hrs 2.65 hrs 389.56 nm 46.90 gal 15.54 gal/hr 0.12 gal/nm 9155 msl 146 kts
Sat, Jun 18, 2011 KPWK KPWK 21:06 21:06 0 hrs 0.00 hrs 0.00 nm 4.90 gal 2940.00 gal/hr 0.00 gal/nm 0 msl 0 kts
Sat, Jun 18, 2011 KPWK KANE 16:38 19:49 3.15 hrs 2.67 hrs 404.83 nm 46.60 gal 14.79 gal/hr 0.12 gal/nm 10097 msl 151 kts
Fri, Jun 17, 2011 KDPA KPWK 20:39 21:06 0.45 hrs 0.24 hrs 31.38 nm 4.90 gal 10.85 gal/hr 0.16 gal/nm 2097 msl 129 kts
Wed, Jun 15, 2011 KDPA KDPA 21:57 21:57 0 hrs 0.00 hrs 0.00 nm 0.50 gal 300.00 gal/hr 0.00 gal/nm 0 msl 0 kts
Wed, Jun 15, 2011 KDPA KDPA 17:05 17:05 0 hrs 0.00 hrs 0.00 nm 0.00 gal 0.00 gal/hr 0.00 gal/nm 0 msl 0 kts
Wed, Jun 15, 2011 KDPA KDPA 17:05 17:05 0 hrs 0.00 hrs 0.00 nm 0.00 gal 0.00 gal/hr 0.00 gal/nm 0 msl 0 kts
Wed, Jun 15, 2011 KDPA KDPA 17:01 17:05 0.09 hrs 0.00 hrs 0.00 nm 0.00 gal 0.00 gal/hr 0.00 gal/nm 0 msl 0 kts
Wed, Jun 15, 2011     16:41 16:41 0 hrs 0.00 hrs 0.00 nm 0.00 gal 0.00 gal/hr 0.00 gal/nm 0 msl 0 kts
Wed, Jun 15, 2011     16:40 16:41 0.02 hrs 0.00 hrs 0.00 nm 0.00 gal 0.00 gal/hr 0.00 gal/nm 0 msl 0 kts
Wed, Jun 15, 2011     16:26 16:39 0.22 hrs 0.00 hrs 0.00 nm 0.00 gal 0.00 gal/hr 0.00 gal/nm 0 msl 0 kts
Wed, Jun 15, 2011     16:24 16:25 0.02 hrs 0.00 hrs 0.00 nm 0.00 gal 0.00 gal/hr 0.00 gal/nm 0 msl 0 kts
Tue, Jun 14, 2011 KDPA KDPA 21:47 21:57 0.17 hrs 0.00 hrs 0.00 nm 0.50 gal 2.97 gal/hr 0.00 gal/nm 0 msl 0 kts
Sat, Jun 11, 2011 KHPN KHPN 14:24 14:24 0 hrs 0.00 hrs 0.00 nm 3.90 gal 2340.00 gal/hr 0.00 gal/nm 0 msl 0 kts
Sat, Jun 11, 2011 KHPN KHPN 14:24 14:24 0 hrs 0.00 hrs 0.00 nm 3.90 gal 2340.00 gal/hr 0.00 gal/nm 0 msl 0 kts
Fri, Jun 10, 2011 KJST KDPA 21:35 01:35 3.95 hrs 3.58 hrs 502.12 nm 61.30 gal 15.51 gal/hr 0.12 gal/nm 16037 msl 139 kts
Fri, Jun 10, 2011 KHPN KJST 16:44 19:14 2.47 hrs 1.92 hrs 276.22 nm 32.90 gal 13.33 gal/hr 0.12 gal/nm 7992 msl 143 kts
Fri, Jun 10, 2011 KDXR KHPN 14:04 14:24 0.34 hrs 0.18 hrs 24.87 nm 3.90 gal 11.64 gal/hr 0.16 gal/nm 2458 msl 135 kts
Fri, Jun 10, 2011 KDXR KDXR 12:48 12:59 0.19 hrs 0.00 hrs 0.00 nm 1.90 gal 10.27 gal/hr 0.00 gal/nm 0 msl 0 kts
Thu, Jun 9, 2011     13:50 13:57 0.12 hrs 0.00 hrs 0.00 nm 1.00 gal 8.45 gal/hr 0.00 gal/nm 0 msl 0 kts
Wed, Jun 8, 2011 KHPN KDXR 21:54 22:34 0.67 hrs 0.21 hrs 26.80 nm 5.70 gal 8.53 gal/hr 0.21 gal/nm 3376 msl 128 kts
Wed, Jun 8, 2011 KHPN KHPN 18:10 18:12 0.04 hrs 0.00 hrs 0.00 nm 0.00 gal 0.00 gal/hr 0.00 gal/nm 0 msl 0 kts
Wed, Jun 8, 2011 KHPN KHPN 12:03 12:06 0.05 hrs 0.00 hrs 0.00 nm 0.00 gal 0.00 gal/hr 0.00 gal/nm 0 msl 0 kts
Tue, Jun 7, 2011 KCAK KHPN 23:56 02:42 2.74 hrs 2.38 hrs 401.78 nm 41.70 gal 15.25 gal/hr 0.10 gal/nm 11105 msl 168 kts
Tue, Jun 7, 2011 KPWK KCAK 20:58 23:28 2.49 hrs 1.97 hrs 343.77 nm 36.00 gal 14.49 gal/hr 0.10 gal/nm 11118 msl 174 kts
Sat, Jun 4, 2011 KFCM KPWK 23:01 01:00 1.97 hrs 1.64 hrs 304.23 nm 29.10 gal 14.78 gal/hr 0.10 gal/nm 8866 msl 184 kts
Sat, Jun 4, 2011 KPWK KFCM 16:21 18:59 2.62 hrs 2.15 hrs 309.37 nm 36.10 gal 13.79 gal/hr 0.12 gal/nm 9903 msl 143 kts
Fri, Jun 3, 2011     22:30 22:31 0.02 hrs 0.00 hrs 0.00 nm 0.00 gal 0.00 gal/hr 0.00 gal/nm 0 msl 0 kts
Thu, Jun 2, 2011 KRST KPWK 20:41 22:33 1.85 hrs 1.50 hrs 233.05 nm 26.10 gal 14.10 gal/hr 0.11 gal/nm 8855 msl 155 kts
Mon, May 30, 2011 KPWK KRST 20:18 22:31 2.19 hrs 1.78 hrs 256.32 nm 28.90 gal 13.23 gal/hr 0.11 gal/nm 10172 msl 143 kts
Sat, May 28, 2011 KPWK KPWK 21:40 21:40 0 hrs 0.00 hrs 0.00 nm 5.70 gal 3420.00 gal/hr 0.00 gal/nm 0 msl 0 kts
Sat, May 28, 2011 KPWK KPWK 21:40 21:40 0 hrs 0.00 hrs 0.00 nm 5.70 gal 3420.00 gal/hr 0.00 gal/nm 0 msl 0 kts
Sat, May 28, 2011 KPWK KPWK 21:40 21:40 0 hrs 0.00 hrs 0.00 nm 5.70 gal 3420.00 gal/hr 0.00 gal/nm 0 msl 0 kts
Fri, May 27, 2011 KPWK KPWK 21:40 21:40 0 hrs 0.00 hrs 0.00 nm 5.70 gal 3420.00 gal/hr 0.00 gal/nm 0 msl 0 kts
Fri, May 27, 2011     14:11 14:11 0 hrs 0.00 hrs 0.00 nm 0.00 gal 0.00 gal/hr 0.00 gal/nm 0 msl 0 kts
Thu, May 26, 2011 KDPA KPWK 21:16 21:40 0.4 hrs 0.25 hrs 32.65 nm 5.70 gal 14.19 gal/hr 0.17 gal/nm 1895 msl 130 kts
Wed, May 25, 2011     14:11 14:11 0 hrs 0.00 hrs 0.00 nm 0.00 gal 0.00 gal/hr 0.00 gal/nm 0 msl 0 kts
Tue, May 24, 2011 KDPA KDPA 21:17 21:17 0 hrs 0.00 hrs 0.00 nm 4.70 gal 2820.00 gal/hr 0.00 gal/nm 0 msl 0 kts
Tue, May 24, 2011     14:11 14:11 0.02 hrs 0.00 hrs 0.00 nm 0.00 gal 0.00 gal/hr 0.00 gal/nm 0 msl 0 kts
Fri, May 20, 2011 KPWK KDPA 20:54 21:17 0.35 hrs 0.16 hrs 24.06 nm 4.70 gal 13.36 gal/hr 0.20 gal/nm 1701 msl 151 kts
Sat, May 14, 2011     21:02 21:05 0.05 hrs 0.00 hrs 0.00 nm 0.00 gal 0.00 gal/hr 0.00 gal/nm 0 msl 0 kts
Sat, May 14, 2011 KPWK KPWK 19:01 19:01 0 hrs 0.00 hrs 0.00 nm 19.50 gal 11700.00 gal/hr 0.00 gal/nm 0 msl 0 kts
Sat, May 14, 2011 KPWK KPWK 19:01 19:01 0 hrs 0.00 hrs 0.00 nm 19.50 gal 11700.00 gal/hr 0.00 gal/nm 0 msl 0 kts
Sat, May 14, 2011     03:13 03:14 0.02 hrs 0.00 hrs 0.00 nm 0.00 gal 0.00 gal/hr 0.00 gal/nm 0 msl 0 kts
Sat, May 14, 2011     03:08 03:12 0.07 hrs 0.00 hrs 0.00 nm 0.00 gal 0.00 gal/hr 0.00 gal/nm 0 msl 0 kts
Sun, Apr 24, 2011 KLSE KPWK 17:26 19:01 1.57 hrs 1.28 hrs 188.31 nm 19.50 gal 12.43 gal/hr 0.10 gal/nm 4893 msl 146 kts
Sun, Apr 24, 2011 KPWK KLSE 15:04 16:58 1.89 hrs 1.45 hrs 211.58 nm 26.20 gal 13.90 gal/hr 0.12 gal/nm 9863 msl 145 kts
Sun, Apr 24, 2011 KPWK KPWK 14:41 14:46 0.1 hrs 0.00 hrs 0.00 nm 0.40 gal 3.93 gal/hr 0.00 gal/nm 0 msl 0 kts
Sat, Apr 23, 2011 KPWK KPWK 20:02 20:10 0.14 hrs 0.00 hrs 0.00 nm 0.50 gal 3.70 gal/hr 0.00 gal/nm 0 msl 0 kts
Wed, Apr 13, 2011 KCAK KPWK 15:56 19:05 3.12 hrs 2.54 hrs 393.69 nm 41.60 gal 13.34 gal/hr 0.11 gal/nm 9946 msl 154 kts
Mon, Apr 4, 2011     15:24 15:25 0.02 hrs 0.00 hrs 0.00 nm 0.00 gal 0.00 gal/hr 0.00 gal/nm 0 msl 0 kts
Mon, Apr 4, 2011 KCAK KCAK 13:54 13:58 0.07 hrs 0.00 hrs 0.00 nm 0.40 gal 5.85 gal/hr 0.00 gal/nm 0 msl 0 kts
          204.63 hrs 166.75 hrs 24232.58 nm 3612.00 gal